Bulgan, Mongolia
Current Conditions -  °F | °C
As of 6:00 AM on Wednesday 22 Oct 2014 (Local Time) from ZMUB Reporting Station
Clear Clear  
Wind Chill: 18°   Ceiling: Unl
Heat Index: 18°   Visibility: 6mi
Dew Point: 12°   Wind: 2mph
Humidity: 79%   Direction: NA
Pressure: 29.94"   Gusts: NA
Location:  48.82°N, 103.56°E
Report Text: ZMUB 212200Z VRB01MPS CAVOK M08/M11 Q1014 NOSIG RMK QFE653.6 82
Loading
Personal Weather Stations






























Interactive Weather Map
Tropical Storm Tracking
New forecast layout! Learn more

10-Day Weather Forecast

Advertisements
Track Severe Weather on mobile